Time;durP1;ratioP1;P1;durP2;ratioP2;P2;SDS_P1;SDS_P2;PMS_P1;PMS_P2;Temp;Humidity;BMP_temperature;BMP_pressure;BME280_temperature;BME280_humidity;BME280_pressure;Samples;Min_cycle;Max_cycle;Signal;HPM_P1;HPM_P2
2022/04/20 00:03:23;;;;;;;5.30;4.80;;;12.00;67.90;;;;;;10466279;28;20220;-84
2022/04/20 00:08:25;;;;;;;8.70;4.70;;;12.00;69.20;;;;;;10444942;28;20680;-84
2022/04/20 00:13:31;;;;;;;7.57;4.90;;;11.90;70.10;;;;;;10467285;28;20488;-85
2022/04/20 00:18:34;;;;;;;5.03;4.57;;;11.80;74.00;;;;;;10471929;28;20189;-83
2022/04/20 00:23:36;;;;;;;4.90;4.50;;;11.80;73.60;;;;;;10454010;28;20239;-83
2022/04/20 00:28:38;;;;;;;6.30;5.70;;;11.80;75.30;;;;;;10457854;28;20190;-83
2022/04/20 00:33:42;;;;;;;5.67;5.17;;;11.80;70.90;;;;;;10457065;28;20259;-83
2022/04/20 00:38:44;;;;;;;5.10;4.70;;;11.70;71.30;;;;;;10442667;28;20202;-84
2022/04/20 00:43:47;;;;;;;4.93;4.53;;;11.60;75.30;;;;;;10458418;28;20217;-84
2022/04/20 00:48:51;;;;;;;5.57;4.97;;;11.50;74.80;;;;;;10449903;28;20189;-83
2022/04/20 00:53:59;;;;;;;5.83;5.33;;;11.50;75.70;;;;;;10440923;28;20213;-85
2022/04/20 00:59:02;;;;;;;6.47;5.10;;;11.40;77.10;;;;;;10425277;28;20611;-84
2022/04/20 01:04:07;;;;;;;4.77;4.37;;;11.40;76.40;;;;;;10413254;28;20213;-83
2022/04/20 01:09:31;;;;;;;4.40;4.00;;;11.40;76.30;;;;;;10450276;28;20224;-84
2022/04/20 01:14:52;;;;;;;4.90;4.30;;;11.30;74.80;;;;;;10450779;28;20761;-83
2022/04/20 01:20:16;;;;;;;5.57;5.17;;;11.10;75.60;;;;;;10435509;28;20623;-83
2022/04/20 01:25:46;;;;;;;5.20;4.80;;;11.00;77.00;;;;;;10450955;28;20231;-84
2022/04/20 01:31:15;;;;;;;6.57;4.87;;;10.80;74.60;;;;;;10417793;28;20288;-84
2022/04/20 01:36:30;;;;;;;6.07;4.80;;;10.70;77.40;;;;;;10454441;28;20218;-83
2022/04/20 01:41:34;;;;;;;5.03;4.63;;;10.50;77.10;;;;;;10470241;28;20281;-83
2022/04/20 01:46:36;;;;;;;5.50;5.00;;;10.40;77.20;;;;;;10452450;28;20241;-85
2022/04/20 01:51:56;;;;;;;5.63;5.13;;;10.40;78.50;;;;;;10451659;28;20192;-84
2022/04/20 01:57:18;;;;;;;5.80;5.40;;;10.20;77.90;;;;;;10471142;28;20210;-83
2022/04/20 02:02:41;;;;;;;6.77;6.17;;;10.20;79.80;;;;;;10442908;28;20209;-84
2022/04/20 02:08:04;;;;;;;5.87;5.37;;;10.10;80.70;;;;;;10434901;28;20232;-84
2022/04/20 02:13:27;;;;;;;6.03;5.53;;;10.10;81.50;;;;;;10464432;28;20225;-84
2022/04/20 02:18:33;;;;;;;6.03;5.63;;;10.00;80.10;;;;;;10476282;28;20231;-84
2022/04/20 02:23:58;;;;;;;6.63;6.10;;;10.00;81.30;;;;;;10445887;28;20235;-83
2022/04/20 02:29:02;;;;;;;5.53;5.10;;;9.90;81.90;;;;;;10437793;28;20270;-83
2022/04/20 02:34:04;;;;;;;5.40;4.93;;;9.90;81.80;;;;;;10450377;28;20213;-83
2022/04/20 02:39:06;;;;;;;6.50;5.60;;;9.80;81.00;;;;;;10458796;28;20201;-83
2022/04/20 02:44:10;;;;;;;5.60;5.20;;;9.70;82.80;;;;;;10455683;28;20221;-84
2022/04/20 02:49:13;;;;;;;5.93;5.43;;;9.70;81.40;;;;;;10457497;28;20197;-84
2022/04/20 02:54:15;;;;;;;6.53;5.60;;;9.60;81.20;;;;;;10460822;28;20213;-84
2022/04/20 02:59:20;;;;;;;6.87;6.27;;;9.50;82.10;;;;;;10484207;28;20233;-83
2022/04/20 03:04:23;;;;;;;5.97;5.47;;;9.40;81.70;;;;;;10459120;28;20679;-83
2022/04/20 03:09:25;;;;;;;5.43;5.03;;;9.30;82.30;;;;;;10459189;28;20204;-83
2022/04/20 03:14:29;;;;;;;6.27;5.80;;;9.20;82.60;;;;;;10484972;28;20284;-86
2022/04/20 03:19:35;;;;;;;6.63;6.00;;;9.10;81.90;;;;;;10462880;28;20299;-85
2022/04/20 03:24:38;;;;;;;5.80;5.40;;;9.00;82.10;;;;;;10443665;28;20586;-84
2022/04/20 03:29:48;;;;;;;6.27;5.77;;;8.90;81.20;;;;;;10456771;28;20296;-85
2022/04/20 03:34:53;;;;;;;8.50;5.90;;;8.80;82.30;;;;;;10473357;28;20225;-85
2022/04/20 03:39:55;;;;;;;5.83;5.33;;;8.70;82.90;;;;;;10470820;28;20193;-86
2022/04/20 03:44:59;;;;;;;6.00;5.50;;;8.70;82.80;;;;;;10478397;28;20231;-86
2022/04/20 03:50:01;;;;;;;9.40;8.60;;;8.70;82.70;;;;;;10478081;28;20189;-84
2022/04/20 03:55:04;;;;;;;7.73;7.03;;;8.60;82.90;;;;;;10462552;28;20217;-85
2022/04/20 04:00:10;;;;;;;5.57;5.07;;;8.60;83.20;;;;;;10464852;28;20653;-83
2022/04/20 04:05:18;;;;;;;5.43;5.00;;;8.50;82.10;;;;;;10480668;28;20228;-86
2022/04/20 04:10:28;;;;;;;6.07;5.47;;;8.50;83.30;;;;;;10457417;28;20208;-84
2022/04/20 04:15:33;;;;;;;5.40;4.90;;;8.50;84.70;;;;;;10482703;28;20300;-85
2022/04/20 04:20:37;;;;;;;6.20;5.70;;;8.50;82.80;;;;;;10455429;28;20197;-84
2022/04/20 04:25:40;;;;;;;5.53;5.07;;;8.40;82.90;;;;;;10453489;28;20260;-85
2022/04/20 04:30:46;;;;;;;6.47;5.47;;;8.40;82.10;;;;;;10472640;28;20213;-85
2022/04/20 04:35:48;;;;;;;6.40;5.80;;;8.30;81.80;;;;;;10437574;28;20212;-85
2022/04/20 04:40:50;;;;;;;5.93;5.43;;;8.30;83.10;;;;;;10470762;28;20235;-84
2022/04/20 04:51:35;;;;;;;6.60;5.90;;;8.20;84.00;;;;;;10491190;28;20272;-85
2022/04/20 04:56:39;;;;;;;6.63;5.80;;;8.20;82.10;;;;;;10465749;28;20210;-84
2022/04/20 05:01:43;;;;;;;6.30;5.90;;;8.20;82.90;;;;;;10450217;28;20197;-83
2022/04/20 05:06:51;;;;;;;6.13;5.60;;;8.30;82.60;;;;;;10471642;28;20579;-83
2022/04/20 05:12:12;;;;;;;7.07;6.37;;;8.30;83.60;;;;;;10445016;28;20201;-82
2022/04/20 05:17:18;;;;;;;6.17;5.67;;;8.30;84.80;;;;;;10449327;28;20715;-82
2022/04/20 05:22:21;;;;;;;5.80;5.27;;;8.40;84.40;;;;;;10436643;28;20292;-81
2022/04/20 05:27:23;;;;;;;6.63;6.13;;;8.40;85.20;;;;;;10416496;28;20785;-82
2022/04/20 05:32:43;;;;;;;7.30;6.60;;;8.50;85.60;;;;;;10427445;28;20287;-81
2022/04/20 05:43:34;;;;;;;5.90;5.50;;;8.70;85.80;;;;;;10418556;28;20654;-82
2022/04/20 05:48:37;;;;;;;6.87;6.27;;;8.70;85.10;;;;;;10437522;28;20728;-82
2022/04/20 05:53:46;;;;;;;7.30;6.60;;;8.80;85.90;;;;;;10437294;28;20609;-83
2022/04/20 05:58:52;;;;;;;6.30;5.43;;;8.90;86.20;;;;;;10434123;28;20620;-82
2022/04/20 06:03:57;;;;;;;6.23;5.60;;;9.00;85.60;;;;;;10434665;28;20222;-82
2022/04/20 06:09:25;;;;;;;7.40;6.60;;;9.10;85.50;;;;;;10455232;28;20577;-82
2022/04/20 06:14:33;;;;;;;7.13;5.83;;;9.20;86.10;;;;;;10430777;28;20655;-82
2022/04/20 06:20:03;;;;;;;5.73;5.23;;;9.30;85.30;;;;;;10462617;28;20563;-83
2022/04/20 06:25:21;;;;;;;6.73;6.00;;;9.50;83.30;;;;;;10452140;28;20221;-83
2022/04/20 06:30:44;;;;;;;6.20;5.60;;;9.60;84.20;;;;;;10420263;28;20204;-83
2022/04/20 06:35:59;;;;;;;6.20;5.60;;;9.70;82.90;;;;;;10439960;28;20239;-83
2022/04/20 06:41:10;;;;;;;7.80;5.10;;;9.80;82.20;;;;;;10466300;28;20198;-83
2022/04/20 06:46:38;;;;;;;5.57;5.10;;;10.00;82.30;;;;;;10448384;28;20225;-82
2022/04/20 07:03:00;;;;;;;5.17;4.77;;;10.30;78.40;;;;;;10435960;28;20259;-81
2022/04/20 07:08:43;;;;;;;5.50;4.97;;;10.40;70.20;;;;;;10422960;28;20277;-81
2022/04/20 07:13:56;;;;;;;7.50;5.90;;;10.40;77.60;;;;;;10428025;28;20440;-81
2022/04/20 07:18:58;;;;;;;5.40;5.00;;;10.40;75.60;;;;;;10443387;28;20225;-81
2022/04/20 07:24:34;;;;;;;5.13;4.63;;;10.60;78.80;;;;;;10438208;28;20217;-81
2022/04/20 07:29:36;;;;;;;5.47;5.07;;;10.80;69.60;;;;;;10454400;28;20221;-81
2022/04/20 07:34:56;;;;;;;5.50;5.13;;;10.80;72.10;;;;;;10459509;28;20224;-81
2022/04/20 07:40:12;;;;;;;5.17;4.77;;;11.00;68.80;;;;;;10444952;28;20220;-81
2022/04/20 07:45:38;;;;;;;4.90;4.50;;;11.10;72.40;;;;;;10441669;28;20277;-81
2022/04/20 07:50:59;;;;;;;5.20;4.80;;;11.60;67.90;;;;;;10460828;28;20193;-81
2022/04/20 07:56:11;;;;;;;4.63;4.27;;;12.10;67.20;;;;;;10432898;28;20209;-81
2022/04/20 08:01:30;;;;;;;5.30;4.90;;;12.40;65.80;;;;;;10449784;28;20201;-83
2022/04/20 08:06:35;;;;;;;5.07;4.67;;;12.70;63.60;;;;;;10429479;28;20645;-83
2022/04/20 08:11:41;;;;;;;4.67;4.27;;;12.90;68.60;;;;;;10468925;28;20715;-82
2022/04/20 08:16:47;;;;;;;5.07;4.67;;;13.30;62.20;;;;;;10459900;28;20224;-81
2022/04/20 08:22:09;;;;;;;4.40;4.10;;;13.50;65.30;;;;;;10425318;28;20307;-81
2022/04/20 08:27:14;;;;;;;7.97;5.30;;;13.90;66.20;;;;;;10475206;28;20512;-83
2022/04/20 08:32:17;;;;;;;5.10;4.80;;;14.20;64.10;;;;;;10407704;28;20236;-82
2022/04/20 08:37:19;;;;;;;6.07;5.57;;;14.40;65.20;;;;;;10423290;28;20244;-83
2022/04/20 08:42:24;;;;;;;5.50;5.00;;;14.70;64.40;;;;;;10444511;28;20197;-81
2022/04/20 08:47:29;;;;;;;4.87;4.47;;;14.90;63.00;;;;;;10409161;28;20240;-81
2022/04/20 08:52:41;;;;;;;5.10;4.70;;;15.10;63.70;;;;;;10465216;28;20228;-82
2022/04/20 08:57:46;;;;;;;5.13;4.73;;;15.30;61.00;;;;;;10459516;28;20213;-82
2022/04/20 09:02:50;;;;;;;4.90;4.60;;;15.30;60.00;;;;;;10462801;28;20201;-82
2022/04/20 09:07:52;;;;;;;4.77;4.30;;;15.30;60.60;;;;;;10451498;28;20614;-82
2022/04/20 09:13:06;;;;;;;4.80;4.33;;;15.40;60.40;;;;;;10458949;28;20198;-82
2022/04/20 09:18:09;;;;;;;4.60;4.30;;;15.50;59.20;;;;;;10431883;28;20725;-82
2022/04/20 09:23:15;;;;;;;4.30;4.00;;;15.60;59.10;;;;;;10451663;28;20740;-82
2022/04/20 09:28:18;;;;;;;4.17;3.87;;;15.80;58.80;;;;;;10435767;28;20221;-82
2022/04/20 09:33:21;;;;;;;3.70;3.40;;;16.00;57.50;;;;;;10451180;28;20240;-84
2022/04/20 09:38:25;;;;;;;4.80;4.30;;;16.30;57.00;;;;;;10468085;28;20197;-82
2022/04/20 09:43:42;;;;;;;4.00;3.70;;;16.60;55.50;;;;;;10439390;28;20214;-81
2022/04/20 09:48:54;;;;;;;4.17;3.87;;;16.70;56.60;;;;;;10460116;28;20237;-83
2022/04/20 09:53:56;;;;;;;4.83;4.43;;;17.00;56.00;;;;;;10462405;28;20221;-82
2022/04/20 09:59:01;;;;;;;4.90;4.50;;;17.20;51.80;;;;;;10469637;28;20268;-83
2022/04/20 10:04:05;;;;;;;4.13;3.90;;;17.40;53.40;;;;;;10450548;28;20225;-83
2022/04/20 10:09:08;;;;;;;3.47;3.20;;;17.50;52.40;;;;;;10458902;28;20304;-83
2022/04/20 10:19:34;;;;;;;3.93;3.73;;;17.30;51.90;;;;;;10428315;28;20301;-83
2022/04/20 10:24:42;;;;;;;4.37;3.97;;;16.80;50.00;;;;;;10426165;28;20245;-82
2022/04/20 10:29:52;;;;;;;4.30;4.00;;;16.40;54.20;;;;;;10459298;28;20200;-83
2022/04/20 10:34:55;;;;;;;4.37;3.97;;;16.00;54.10;;;;;;10434263;28;20248;-82
2022/04/20 10:40:15;;;;;;;3.77;3.57;;;15.70;54.30;;;;;;10462208;28;20197;-83
2022/04/20 10:45:20;;;;;;;4.70;4.30;;;15.50;56.50;;;;;;10449514;28;20209;-82
2022/04/20 10:50:25;;;;;;;4.60;4.30;;;15.30;56.50;;;;;;10449357;28;20213;-83
2022/04/20 10:55:53;;;;;;;4.23;3.97;;;15.10;54.20;;;;;;10455924;28;20225;-82
2022/04/20 11:01:11;;;;;;;4.30;4.00;;;14.90;55.70;;;;;;10445120;28;20568;-82
2022/04/20 11:06:13;;;;;;;4.33;4.13;;;14.80;55.30;;;;;;10444961;28;20237;-82
2022/04/20 11:21:55;;;;;;;3.60;3.30;;;14.60;54.50;;;;;;10423494;28;20205;-82
2022/04/20 11:26:58;;;;;;;4.03;3.83;;;14.50;55.30;;;;;;10446445;28;20308;-82
2022/04/20 11:32:03;;;;;;;5.13;4.07;;;14.50;55.50;;;;;;10451947;28;20913;-83
2022/04/20 11:37:11;;;;;;;4.80;4.50;;;14.40;55.70;;;;;;10434978;28;20225;-82
2022/04/20 11:42:14;;;;;;;4.60;4.27;;;14.40;52.80;;;;;;10440390;28;20209;-83
2022/04/20 11:47:17;;;;;;;5.43;4.97;;;14.40;53.70;;;;;;10435330;28;20294;-83
2022/04/20 11:52:21;;;;;;;5.43;4.93;;;14.30;54.00;;;;;;10456915;28;20224;-82
2022/04/20 11:57:34;;;;;;;4.70;4.30;;;14.30;55.10;;;;;;10449068;28;20216;-82
2022/04/20 12:02:38;;;;;;;8.23;3.90;;;14.30;53.90;;;;;;10457624;28;20262;-82
2022/04/20 12:07:45;;;;;;;4.60;4.20;;;14.40;54.80;;;;;;10441569;28;20274;-82
2022/04/20 12:12:50;;;;;;;4.30;4.00;;;14.50;53.10;;;;;;10450742;28;20209;-82
2022/04/20 12:17:54;;;;;;;4.03;3.73;;;14.40;53.80;;;;;;10435291;28;20212;-82
2022/04/20 12:23:06;;;;;;;4.23;3.87;;;14.30;55.80;;;;;;10437725;28;20643;-83
2022/04/20 12:28:35;;;;;;;4.57;4.17;;;14.40;57.30;;;;;;10456788;28;20223;-83
2022/04/20 12:33:33;;;;;;;4.17;3.90;;;14.40;56.20;;;;;;10452442;28;20886;-83
2022/04/20 12:38:48;;;;;;;3.80;3.53;;;14.50;55.60;;;;;;10446421;28;20571;-83
2022/04/20 12:43:50;;;;;;;4.27;3.97;;;14.50;55.90;;;;;;10431763;28;20229;-83
2022/04/20 12:48:55;;;;;;;4.73;4.43;;;14.50;53.80;;;;;;10434682;28;20715;-82
2022/04/20 12:53:57;;;;;;;4.70;4.40;;;14.60;51.00;;;;;;10431066;28;20229;-83
2022/04/20 13:04:49;;;;;;;4.17;3.87;;;14.60;53.90;;;;;;10421526;28;20656;-82
2022/04/20 13:09:54;;;;;;;4.77;3.70;;;14.60;53.50;;;;;;10446828;28;20687;-82
2022/04/20 13:15:01;;;;;;;4.33;4.03;;;14.70;53.20;;;;;;10446085;28;20301;-81
2022/04/20 13:20:11;;;;;;;3.80;3.60;;;14.70;51.60;;;;;;10453259;28;20227;-81
2022/04/20 13:30:36;;;;;;;3.43;3.23;;;14.80;51.00;;;;;;10437734;28;20212;-82
2022/04/20 13:35:40;;;;;;;4.07;3.77;;;14.90;49.70;;;;;;10457299;28;20217;-83
2022/04/20 13:40:43;;;;;;;3.50;3.30;;;14.90;51.60;;;;;;10456378;28;20197;-83
2022/04/20 13:45:45;;;;;;;4.13;3.83;;;14.90;51.70;;;;;;10432343;28;20315;-82
2022/04/20 13:50:49;;;;;;;3.97;3.57;;;15.00;52.80;;;;;;10432771;28;20689;-82
2022/04/20 13:55:51;;;;;;;4.43;4.07;;;15.10;49.50;;;;;;10463123;28;20221;-84
2022/04/20 14:00:55;;;;;;;3.80;3.50;;;15.20;51.60;;;;;;10462642;28;20268;-83
2022/04/20 14:05:58;;;;;;;3.60;3.40;;;15.20;53.90;;;;;;10462534;28;20244;-80
2022/04/20 14:11:19;;;;;;;4.10;3.80;;;15.20;54.40;;;;;;10428999;28;20202;-83
2022/04/20 14:16:21;;;;;;;3.87;3.67;;;15.30;51.00;;;;;;10432524;28;20705;-83
2022/04/20 14:21:25;;;;;;;3.57;3.37;;;15.30;52.60;;;;;;10439084;28;20209;-82
2022/04/20 14:37:09;;;;;;;3.83;3.63;;;15.40;51.80;;;;;;10440546;28;20221;-81
2022/04/20 14:42:12;;;;;;;4.10;3.70;;;15.50;52.00;;;;;;10432878;28;20208;-82
2022/04/20 14:47:14;;;;;;;3.93;3.63;;;15.50;52.90;;;;;;10424576;28;20237;-82
2022/04/20 14:52:18;;;;;;;3.87;3.57;;;15.50;52.60;;;;;;10416837;28;20256;-82
2022/04/20 14:57:21;;;;;;;3.50;3.30;;;15.50;51.90;;;;;;10443743;28;20221;-82
2022/04/20 15:02:23;;;;;;;3.90;3.70;;;15.50;51.20;;;;;;10436827;28;20734;-81
2022/04/20 15:07:26;;;;;;;3.53;3.33;;;15.50;54.80;;;;;;10426979;28;20236;-80
2022/04/20 15:12:29;;;;;;;4.40;4.10;;;15.50;53.40;;;;;;10453053;28;20271;-82
2022/04/20 15:17:32;;;;;;;4.40;4.00;;;15.50;53.20;;;;;;10453571;28;20225;-81
2022/04/20 15:22:36;;;;;;;3.90;3.60;;;15.60;50.80;;;;;;10450514;28;20235;-82
2022/04/20 15:27:38;;;;;;;3.87;3.60;;;15.60;49.60;;;;;;10454020;28;20650;-81
2022/04/20 15:32:41;;;;;;;4.33;3.90;;;15.70;49.40;;;;;;10430587;28;20197;-83
2022/04/20 15:37:44;;;;;;;4.00;3.60;;;15.80;51.30;;;;;;10451139;28;20213;-82
2022/04/20 15:42:55;;;;;;;4.17;3.90;;;16.30;51.80;;;;;;10457901;28;20267;-85
2022/04/20 15:47:57;;;;;;;3.47;3.17;;;16.50;50.50;;;;;;10434180;28;20566;-82
2022/04/20 15:53:02;;;;;;;3.70;3.50;;;16.50;51.70;;;;;;10459224;28;20208;-83
2022/04/20 16:03:24;;;;;;;4.03;3.73;;;16.20;53.00;;;;;;10444643;28;20319;-82
2022/04/20 16:08:27;;;;;;;4.60;4.23;;;16.00;54.20;;;;;;10469941;23;20393;-77
2022/04/20 16:13:30;;;;;;;3.97;3.77;;;15.90;55.20;;;;;;10420160;28;20248;-78
2022/04/20 16:18:32;;;;;;;5.00;4.60;;;15.90;56.60;;;;;;10409483;28;20300;-78
2022/04/20 16:23:36;;;;;;;4.10;3.80;;;15.80;54.40;;;;;;10410025;28;20197;-79
2022/04/20 16:28:38;;;;;;;3.53;3.33;;;15.80;55.20;;;;;;10435851;28;20659;-78
2022/04/20 16:33:40;;;;;;;4.33;4.03;;;15.70;55.00;;;;;;10423823;28;20626;-77
2022/04/20 16:38:43;;;;;;;4.50;4.20;;;15.60;57.20;;;;;;10435916;28;20638;-79
2022/04/20 16:43:45;;;;;;;3.97;3.67;;;15.60;56.30;;;;;;10422266;28;20205;-78
2022/04/20 16:48:48;;;;;;;4.30;4.00;;;15.60;57.10;;;;;;10407865;28;20214;-79
2022/04/20 16:53:51;;;;;;;3.43;3.23;;;15.60;56.80;;;;;;10438859;28;20308;-78
2022/04/20 16:58:54;;;;;;;4.17;3.90;;;15.50;58.00;;;;;;10422813;28;20677;-79
2022/04/20 17:03:56;;;;;;;6.67;4.47;;;15.50;61.10;;;;;;10434169;28;20247;-78
2022/04/20 17:08:59;;;;;;;3.73;3.53;;;15.40;57.70;;;;;;10441847;28;20225;-78
2022/04/20 17:14:02;;;;;;;3.43;3.23;;;15.40;56.70;;;;;;10427436;28;20232;-78
2022/04/20 17:19:04;;;;;;;4.10;3.80;;;15.40;56.60;;;;;;10435541;28;20257;-78
2022/04/20 17:29:28;;;;;;;3.70;3.40;;;15.30;56.50;;;;;;10449561;28;20776;-77
2022/04/20 17:34:30;;;;;;;3.47;3.27;;;15.30;55.30;;;;;;10422565;28;20202;-78
2022/04/20 17:39:34;;;;;;;3.80;3.50;;;15.20;60.00;;;;;;10427432;28;20213;-77
2022/04/20 17:44:37;;;;;;;4.70;4.30;;;15.20;56.60;;;;;;10431381;28;20682;-78
2022/04/20 17:49:39;;;;;;;4.07;3.80;;;15.20;57.10;;;;;;10439763;28;20217;-78
2022/04/20 17:54:43;;;;;;;4.70;4.37;;;15.10;62.80;;;;;;10458477;28;20201;-78
2022/04/20 17:59:45;;;;;;;5.23;4.60;;;15.00;64.80;;;;;;10462128;28;20205;-78
2022/04/20 18:04:47;;;;;;;5.53;5.03;;;15.00;64.80;;;;;;10462176;28;20207;-78
2022/04/20 18:09:51;;;;;;;4.63;4.33;;;14.90;65.00;;;;;;10458469;28;20703;-78
2022/04/20 18:14:53;;;;;;;4.03;3.73;;;14.80;62.10;;;;;;10436820;28;20236;-79
2022/04/20 18:19:55;;;;;;;6.73;3.43;;;14.80;61.90;;;;;;10444013;28;20756;-78
2022/04/20 18:24:59;;;;;;;4.37;3.23;;;14.70;62.20;;;;;;10461779;28;20197;-78
2022/04/20 18:30:01;;;;;;;9.57;6.80;;;14.60;62.60;;;;;;10435551;28;20242;-78
2022/04/20 18:35:04;;;;;;;9.93;7.80;;;14.40;62.50;;;;;;10442965;28;20633;-79
2022/04/20 18:40:09;;;;;;;7.17;5.50;;;14.40;60.80;;;;;;10440954;28;20300;-77
2022/04/20 18:45:11;;;;;;;6.27;5.10;;;14.20;62.60;;;;;;10432374;28;20216;-78
2022/04/20 18:50:14;;;;;;;8.73;4.87;;;14.10;61.50;;;;;;10437535;28;20685;-77
2022/04/20 19:00:38;;;;;;;5.77;5.27;;;13.70;61.80;;;;;;10432116;28;20218;-78
2022/04/20 19:05:41;;;;;;;5.50;5.00;;;13.60;60.80;;;;;;10437130;28;20201;-78
2022/04/20 19:10:46;;;;;;;4.13;3.83;;;13.40;63.50;;;;;;10432991;28;20363;-78
2022/04/20 19:15:49;;;;;;;5.13;4.07;;;13.30;63.60;;;;;;10415584;28;20205;-78
2022/04/20 19:20:51;;;;;;;4.37;4.07;;;13.20;64.60;;;;;;10450447;28;20748;-78
2022/04/20 19:25:54;;;;;;;7.17;3.33;;;13.10;64.00;;;;;;10445768;28;20258;-78
2022/04/20 19:30:58;;;;;;;4.90;4.50;;;13.00;66.00;;;;;;10442373;28;20298;-78
2022/04/20 19:36:00;;;;;;;5.30;4.60;;;13.00;66.30;;;;;;10441112;28;20197;-77
2022/04/20 19:41:04;;;;;;;6.77;6.17;;;12.90;64.40;;;;;;10434076;28;20217;-77
2022/04/20 19:46:06;;;;;;;7.10;6.00;;;12.90;64.90;;;;;;10424938;28;20259;-77
2022/04/20 19:51:08;;;;;;;10.00;6.40;;;12.70;64.20;;;;;;10416670;28;20225;-78
2022/04/20 19:56:12;;;;;;;6.67;6.17;;;12.70;65.10;;;;;;10425362;28;20669;-78
2022/04/20 20:01:14;;;;;;;5.50;5.10;;;12.60;65.40;;;;;;10421048;28;20229;-78
2022/04/20 20:06:17;;;;;;;5.47;5.00;;;12.50;65.90;;;;;;10426816;28;20206;-77
2022/04/20 20:11:22;;;;;;;5.97;5.57;;;12.40;65.40;;;;;;10424596;28;20631;-78
2022/04/20 20:16:25;;;;;;;5.90;5.33;;;12.30;65.20;;;;;;10423982;28;20280;-77
2022/04/20 20:21:27;;;;;;;5.17;4.70;;;12.20;66.70;;;;;;10406816;28;20223;-78
2022/04/20 20:31:52;;;;;;;6.00;4.97;;;12.10;67.10;;;;;;10417282;28;20248;-77
2022/04/20 20:36:56;;;;;;;5.50;5.00;;;12.00;67.30;;;;;;10421419;28;20324;-78
2022/04/20 20:42:00;;;;;;;5.93;5.43;;;11.90;64.80;;;;;;10414103;28;20241;-79
2022/04/20 20:47:02;;;;;;;6.10;5.60;;;11.80;63.80;;;;;;10424692;28;20204;-78
2022/04/20 20:52:05;;;;;;;6.20;5.70;;;11.70;67.80;;;;;;10433542;28;20222;-78
2022/04/20 20:57:10;;;;;;;6.00;5.40;;;11.70;67.10;;;;;;10425639;28;20295;-78
2022/04/20 21:02:12;;;;;;;5.83;5.43;;;11.80;66.20;;;;;;10435270;28;20218;-79
2022/04/20 21:07:14;;;;;;;7.40;5.60;;;11.80;67.20;;;;;;10427601;28;20308;-79
2022/04/20 21:12:17;;;;;;;7.27;6.57;;;11.80;66.30;;;;;;10425544;28;20434;-78
2022/04/20 21:17:19;;;;;;;6.50;5.70;;;11.80;66.30;;;;;;10427472;28;20256;-78
2022/04/20 21:22:22;;;;;;;6.80;6.17;;;11.80;63.90;;;;;;10416862;28;20337;-78
2022/04/20 21:27:25;;;;;;;6.97;6.37;;;11.70;67.20;;;;;;10428824;28;20300;-78
2022/04/20 21:32:28;;;;;;;5.83;5.30;;;11.60;68.40;;;;;;10426156;28;20221;-78
2022/04/20 21:37:30;;;;;;;4.97;4.57;;;11.60;66.30;;;;;;10441715;28;20225;-78
2022/04/20 21:42:34;;;;;;;5.33;4.83;;;11.50;67.70;;;;;;10439140;28;20217;-78
2022/04/20 21:47:37;;;;;;;5.90;5.37;;;11.50;67.20;;;;;;10439577;28;20280;-78
2022/04/20 21:52:41;;;;;;;5.73;5.03;;;11.40;68.50;;;;;;10439314;28;20221;-78
2022/04/20 21:57:46;;;;;;;5.53;5.00;;;11.30;69.00;;;;;;10437285;28;20205;-78
2022/04/20 22:08:25;;;;;;;5.47;4.80;;;11.20;69.40;;;;;;10465458;22;20248;-86
2022/04/20 22:13:30;;;;;;;6.23;5.63;;;11.20;71.00;;;;;;10397406;28;20582;-85
2022/04/20 22:18:34;;;;;;;5.13;4.67;;;11.20;70.60;;;;;;10402009;28;20559;-84
2022/04/20 22:23:37;;;;;;;5.53;5.03;;;11.30;72.80;;;;;;10377514;28;20198;-84
2022/04/20 22:28:41;;;;;;;5.50;5.10;;;11.40;73.60;;;;;;10379076;28;20648;-84
2022/04/20 22:33:43;;;;;;;8.10;5.80;;;11.50;74.20;;;;;;10374841;28;20209;-81
2022/04/20 22:38:45;;;;;;;5.20;4.90;;;11.50;73.60;;;;;;10378740;28;20206;-81
2022/04/20 22:43:50;;;;;;;6.70;5.80;;;11.50;75.20;;;;;;10358855;28;20209;-83
2022/04/20 22:48:52;;;;;;;5.83;5.43;;;11.60;74.50;;;;;;10392082;28;20602;-82
2022/04/20 22:53:54;;;;;;;5.70;5.23;;;11.60;74.60;;;;;;10386543;28;20199;-83
2022/04/20 22:58:58;;;;;;;5.90;5.40;;;11.60;75.10;;;;;;10354421;28;20276;-83
2022/04/20 23:04:00;;;;;;;6.13;5.63;;;11.60;74.90;;;;;;10356020;28;20202;-83
2022/04/20 23:09:02;;;;;;;5.30;4.90;;;11.60;75.50;;;;;;10373123;28;20249;-83
2022/04/20 23:14:05;;;;;;;5.90;5.40;;;11.60;75.60;;;;;;10385673;28;20735;-84
2022/04/20 23:19:07;;;;;;;5.60;5.20;;;11.60;75.10;;;;;;10400752;28;20312;-82
2022/04/20 23:24:09;;;;;;;6.90;5.97;;;11.60;76.20;;;;;;10394974;28;20248;-82
2022/04/20 23:29:13;;;;;;;5.43;5.03;;;11.50;76.40;;;;;;10333543;28;20706;-82
2022/04/20 23:34:17;;;;;;;6.00;5.60;;;11.50;76.70;;;;;;10361331;28;20203;-83
2022/04/20 23:39:19;;;;;;;6.43;5.87;;;11.50;77.20;;;;;;10348311;28;20238;-82
2022/04/20 23:44:24;;;;;;;6.93;6.33;;;11.50;78.10;;;;;;10383262;28;20206;-82
2022/04/20 23:49:29;;;;;;;5.90;5.50;;;11.50;78.70;;;;;;10407804;28;20213;-82
2022/04/20 23:54:31;;;;;;;5.70;5.20;;;11.50;78.50;;;;;;10378629;28;20198;-83
2022/04/20 23:59:36;;;;;;;6.67;5.30;;;11.50;77.40;;;;;;10370207;28;20272;-84
